Prospect, Connecticut
Current Conditions -  °F | °C
As of 1:53 AM on Saturday 01 Nov 2014 (Local Time) from KMMK Reporting Station
Light Rain Light Rain  
Wind Chill:   Ceiling: 9000
Heat Index:   Visibility: 10mi
Dew Point:   Wind: 10mph
Humidity: 80%   Direction: 360°N
Pressure: 29.89"   Gusts: NA
Location:  41.5°N, 72.98°W
Report Text: KMMK 010553Z AUTO 36009KT 10SM -RA SCT060 SCT075 OVC090 07/04 A2989 RMK AO2 RAB32 SLP121 P0000 60002 T00720039 10089 20072 58018 TSNO
Loading
Personal Weather Stations






























Interactive Weather Map
Tropical Storm Tracking
New forecast layout! Learn more

10-Day Weather Forecast

Advertisements
Track Severe Weather on mobile